sensor_id;sensor_type;location;lat;lon;timestamp;temperature;humidity
758;DHT22;363;48.764;9.172;2024-01-30T00:01:12;4.60;99.90
758;DHT22;363;48.764;9.172;2024-01-30T00:03:38;5.10;99.90
758;DHT22;363;48.764;9.172;2024-01-30T00:06:04;4.60;99.90
758;DHT22;363;48.764;9.172;2024-01-30T00:08:29;5.10;99.90
758;DHT22;363;48.764;9.172;2024-01-30T00:13:21;4.70;99.90
758;DHT22;363;48.764;9.172;2024-01-30T00:15:46;4.50;99.90
758;DHT22;363;48.764;9.172;2024-01-30T00:18:12;4.50;99.90
758;DHT22;363;48.764;9.172;2024-01-30T00:23:03;4.30;99.90
758;DHT22;363;48.764;9.172;2024-01-30T00:25:29;4.20;99.90
758;DHT22;363;48.764;9.172;2024-01-30T00:27:55;4.20;99.90
758;DHT22;363;48.764;9.172;2024-01-30T00:30:21;4.10;99.90
758;DHT22;363;48.764;9.172;2024-01-30T00:32:46;4.30;99.90
758;DHT22;363;48.764;9.172;2024-01-30T00:35:12;4.50;99.90
758;DHT22;363;48.764;9.172;2024-01-30T00:37:38;4.70;99.90
758;DHT22;363;48.764;9.172;2024-01-30T00:40:03;4.20;99.90
758;DHT22;363;48.764;9.172;2024-01-30T00:42:31;4.30;99.90
758;DHT22;363;48.764;9.172;2024-01-30T00:44:57;4.50;99.90
758;DHT22;363;48.764;9.172;2024-01-30T00:47:23;4.20;99.90
758;DHT22;363;48.764;9.172;2024-01-30T00:49:48;4.20;99.90
758;DHT22;363;48.764;9.172;2024-01-30T00:52:14;3.60;99.90
758;DHT22;363;48.764;9.172;2024-01-30T00:54:41;4.20;99.90
758;DHT22;363;48.764;9.172;2024-01-30T00:57:07;4.80;99.90
758;DHT22;363;48.764;9.172;2024-01-30T00:59:32;5.00;99.90
758;DHT22;363;48.764;9.172;2024-01-30T01:01:58;5.00;99.90
758;DHT22;363;48.764;9.172;2024-01-30T01:04:23;4.60;99.90
758;DHT22;363;48.764;9.172;2024-01-30T01:06:49;4.60;99.90
758;DHT22;363;48.764;9.172;2024-01-30T01:09:15;4.50;99.90
758;DHT22;363;48.764;9.172;2024-01-30T01:11:40;4.60;99.90
758;DHT22;363;48.764;9.172;2024-01-30T01:14:06;4.40;99.90
758;DHT22;363;48.764;9.172;2024-01-30T01:16:31;4.30;99.90
758;DHT22;363;48.764;9.172;2024-01-30T01:18:57;4.50;99.90
758;DHT22;363;48.764;9.172;2024-01-30T01:21:22;4.50;99.90
758;DHT22;363;48.764;9.172;2024-01-30T01:23:48;4.70;99.90
758;DHT22;363;48.764;9.172;2024-01-30T01:26:14;4.90;99.90
758;DHT22;363;48.764;9.172;2024-01-30T01:28:40;4.30;99.90
758;DHT22;363;48.764;9.172;2024-01-30T01:31:06;4.50;99.90
758;DHT22;363;48.764;9.172;2024-01-30T01:35:59;4.50;99.90
758;DHT22;363;48.764;9.172;2024-01-30T01:38:24;4.50;99.90
758;DHT22;363;48.764;9.172;2024-01-30T01:40:50;4.50;99.90
758;DHT22;363;48.764;9.172;2024-01-30T01:43:16;4.50;99.90
758;DHT22;363;48.764;9.172;2024-01-30T01:45:42;4.30;99.90
758;DHT22;363;48.764;9.172;2024-01-30T01:48:08;4.00;99.90
758;DHT22;363;48.764;9.172;2024-01-30T01:50:34;4.60;99.90
758;DHT22;363;48.764;9.172;2024-01-30T01:53:02;4.20;99.90
758;DHT22;363;48.764;9.172;2024-01-30T01:55:29;4.20;99.90
758;DHT22;363;48.764;9.172;2024-01-30T01:57:55;5.60;99.90
758;DHT22;363;48.764;9.172;2024-01-30T02:00:21;4.10;99.90
758;DHT22;363;48.764;9.172;2024-01-30T02:02:47;3.70;99.90
758;DHT22;363;48.764;9.172;2024-01-30T02:05:13;4.00;99.90
758;DHT22;363;48.764;9.172;2024-01-30T02:07:38;4.20;99.90
758;DHT22;363;48.764;9.172;2024-01-30T02:10:04;4.10;99.90
758;DHT22;363;48.764;9.172;2024-01-30T02:12:30;4.10;99.90
758;DHT22;363;48.764;9.172;2024-01-30T02:14:55;4.00;99.90
758;DHT22;363;48.764;9.172;2024-01-30T02:17:21;4.60;99.90
758;DHT22;363;48.764;9.172;2024-01-30T02:19:48;3.50;99.90
758;DHT22;363;48.764;9.172;2024-01-30T02:22:14;4.20;99.90
758;DHT22;363;48.764;9.172;2024-01-30T02:24:40;4.00;99.90
758;DHT22;363;48.764;9.172;2024-01-30T02:27:05;4.50;99.90
758;DHT22;363;48.764;9.172;2024-01-30T02:29:31;4.50;99.90
758;DHT22;363;48.764;9.172;2024-01-30T02:31:56;4.20;99.90
758;DHT22;363;48.764;9.172;2024-01-30T02:34:23;4.10;99.90
758;DHT22;363;48.764;9.172;2024-01-30T02:36:48;4.30;99.90
758;DHT22;363;48.764;9.172;2024-01-30T02:39:14;3.90;99.90
758;DHT22;363;48.764;9.172;2024-01-30T02:41:40;4.10;99.90
758;DHT22;363;48.764;9.172;2024-01-30T02:44:05;4.40;99.90
758;DHT22;363;48.764;9.172;2024-01-30T02:46:31;3.60;99.90
758;DHT22;363;48.764;9.172;2024-01-30T02:48:56;4.30;99.90
758;DHT22;363;48.764;9.172;2024-01-30T02:51:22;4.20;99.90
758;DHT22;363;48.764;9.172;2024-01-30T02:53:47;3.80;99.90
758;DHT22;363;48.764;9.172;2024-01-30T02:56:13;4.00;99.90
758;DHT22;363;48.764;9.172;2024-01-30T02:58:40;4.70;99.90
758;DHT22;363;48.764;9.172;2024-01-30T03:01:06;3.90;99.90
758;DHT22;363;48.764;9.172;2024-01-30T03:05:59;4.10;99.90
758;DHT22;363;48.764;9.172;2024-01-30T03:08:25;4.20;99.90
758;DHT22;363;48.764;9.172;2024-01-30T03:10:50;4.00;99.90
758;DHT22;363;48.764;9.172;2024-01-30T03:13:16;4.40;99.90
758;DHT22;363;48.764;9.172;2024-01-30T03:15:41;3.70;99.90
758;DHT22;363;48.764;9.172;2024-01-30T03:18:07;4.00;99.90
758;DHT22;363;48.764;9.172;2024-01-30T03:20:32;3.90;99.90
758;DHT22;363;48.764;9.172;2024-01-30T03:22:59;3.50;99.90
758;DHT22;363;48.764;9.172;2024-01-30T03:25:25;3.20;99.90
758;DHT22;363;48.764;9.172;2024-01-30T03:27:51;3.90;99.90
758;DHT22;363;48.764;9.172;2024-01-30T03:30:16;4.30;99.90
758;DHT22;363;48.764;9.172;2024-01-30T03:32:42;3.80;99.90
758;DHT22;363;48.764;9.172;2024-01-30T03:35:08;3.90;99.90
758;DHT22;363;48.764;9.172;2024-01-30T03:37:34;3.90;99.90
758;DHT22;363;48.764;9.172;2024-01-30T03:39:59;4.20;99.90
758;DHT22;363;48.764;9.172;2024-01-30T03:42:25;3.60;99.90
758;DHT22;363;48.764;9.172;2024-01-30T03:44:50;3.60;99.90
758;DHT22;363;48.764;9.172;2024-01-30T03:47:20;3.50;99.90
758;DHT22;363;48.764;9.172;2024-01-30T03:49:46;3.80;99.90
758;DHT22;363;48.764;9.172;2024-01-30T03:52:12;3.70;99.90
758;DHT22;363;48.764;9.172;2024-01-30T03:54:37;4.10;99.90
758;DHT22;363;48.764;9.172;2024-01-30T03:57:03;3.70;99.90
758;DHT22;363;48.764;9.172;2024-01-30T03:59:29;3.70;99.90
758;DHT22;363;48.764;9.172;2024-01-30T04:01:54;3.90;99.90
758;DHT22;363;48.764;9.172;2024-01-30T04:04:20;3.70;99.90
758;DHT22;363;48.764;9.172;2024-01-30T04:06:46;4.20;99.90
758;DHT22;363;48.764;9.172;2024-01-30T04:09:12;3.70;99.90
758;DHT22;363;48.764;9.172;2024-01-30T04:11:39;4.20;99.90
758;DHT22;363;48.764;9.172;2024-01-30T04:14:05;4.00;99.90
758;DHT22;363;48.764;9.172;2024-01-30T04:16:30;3.20;99.90
758;DHT22;363;48.764;9.172;2024-01-30T04:18:56;3.80;99.90
758;DHT22;363;48.764;9.172;2024-01-30T04:21:22;3.30;99.90
758;DHT22;363;48.764;9.172;2024-01-30T04:23:48;3.70;99.90
758;DHT22;363;48.764;9.172;2024-01-30T04:26:14;4.20;99.90
758;DHT22;363;48.764;9.172;2024-01-30T04:28:41;3.70;99.90
758;DHT22;363;48.764;9.172;2024-01-30T04:31:07;3.70;99.90
758;DHT22;363;48.764;9.172;2024-01-30T04:33:33;3.80;99.90
758;DHT22;363;48.764;9.172;2024-01-30T04:35:58;4.20;99.90
758;DHT22;363;48.764;9.172;2024-01-30T04:38:24;3.80;99.90
758;DHT22;363;48.764;9.172;2024-01-30T04:40:49;3.90;99.90
758;DHT22;363;48.764;9.172;2024-01-30T04:43:15;3.90;99.90
758;DHT22;363;48.764;9.172;2024-01-30T04:45:41;3.60;99.90
758;DHT22;363;48.764;9.172;2024-01-30T04:48:07;3.40;99.90
758;DHT22;363;48.764;9.172;2024-01-30T04:50:32;3.80;99.90
758;DHT22;363;48.764;9.172;2024-01-30T04:52:58;3.50;99.90
758;DHT22;363;48.764;9.172;2024-01-30T04:55:24;3.60;99.90
758;DHT22;363;48.764;9.172;2024-01-30T04:57:49;3.80;99.90
758;DHT22;363;48.764;9.172;2024-01-30T05:00:15;3.80;99.90
758;DHT22;363;48.764;9.172;2024-01-30T05:02:41;3.70;99.90
758;DHT22;363;48.764;9.172;2024-01-30T05:05:06;3.70;99.90
758;DHT22;363;48.764;9.172;2024-01-30T05:07:33;3.70;99.90
758;DHT22;363;48.764;9.172;2024-01-30T05:09:59;4.00;99.90
758;DHT22;363;48.764;9.172;2024-01-30T05:12:25;3.60;99.90
758;DHT22;363;48.764;9.172;2024-01-30T05:14:50;3.90;99.90
758;DHT22;363;48.764;9.172;2024-01-30T05:17:16;4.00;99.90
758;DHT22;363;48.764;9.172;2024-01-30T05:19:43;3.60;99.90
758;DHT22;363;48.764;9.172;2024-01-30T05:22:09;3.70;99.90
758;DHT22;363;48.764;9.172;2024-01-30T05:24:35;3.60;99.90
758;DHT22;363;48.764;9.172;2024-01-30T05:27:01;3.60;99.90
758;DHT22;363;48.764;9.172;2024-01-30T05:29:27;3.70;99.90
758;DHT22;363;48.764;9.172;2024-01-30T05:31:53;3.30;99.90
758;DHT22;363;48.764;9.172;2024-01-30T05:34:18;3.50;99.90
758;DHT22;363;48.764;9.172;2024-01-30T05:36:44;3.50;99.90
758;DHT22;363;48.764;9.172;2024-01-30T05:39:09;3.70;99.90
758;DHT22;363;48.764;9.172;2024-01-30T05:41:36;4.30;99.90
758;DHT22;363;48.764;9.172;2024-01-30T05:44:01;3.90;99.90
758;DHT22;363;48.764;9.172;2024-01-30T05:46:27;3.70;99.90
758;DHT22;363;48.764;9.172;2024-01-30T05:48:52;3.60;99.90
758;DHT22;363;48.764;9.172;2024-01-30T05:51:18;3.90;99.90
758;DHT22;363;48.764;9.172;2024-01-30T05:53:43;3.80;99.90
758;DHT22;363;48.764;9.172;2024-01-30T05:56:09;4.20;99.90
758;DHT22;363;48.764;9.172;2024-01-30T05:58:35;3.70;99.90
758;DHT22;363;48.764;9.172;2024-01-30T06:01:00;3.60;99.90
758;DHT22;363;48.764;9.172;2024-01-30T06:03:26;3.80;99.90
758;DHT22;363;48.764;9.172;2024-01-30T06:05:51;4.00;99.90
758;DHT22;363;48.764;9.172;2024-01-30T06:08:17;3.60;99.90
758;DHT22;363;48.764;9.172;2024-01-30T06:10:43;3.00;99.90
758;DHT22;363;48.764;9.172;2024-01-30T06:13:08;3.60;99.90
758;DHT22;363;48.764;9.172;2024-01-30T06:15:34;3.40;99.90
758;DHT22;363;48.764;9.172;2024-01-30T06:20:25;3.60;99.90
758;DHT22;363;48.764;9.172;2024-01-30T06:30:09;3.50;99.90
758;DHT22;363;48.764;9.172;2024-01-30T06:32:36;3.60;99.90
758;DHT22;363;48.764;9.172;2024-01-30T06:35:01;3.10;99.90
758;DHT22;363;48.764;9.172;2024-01-30T06:37:27;3.70;99.90
758;DHT22;363;48.764;9.172;2024-01-30T06:39:53;3.90;99.90
758;DHT22;363;48.764;9.172;2024-01-30T06:42:19;3.80;99.90
758;DHT22;363;48.764;9.172;2024-01-30T06:44:44;3.90;99.90
758;DHT22;363;48.764;9.172;2024-01-30T06:47:10;3.60;99.90
758;DHT22;363;48.764;9.172;2024-01-30T06:49:36;3.60;99.90
758;DHT22;363;48.764;9.172;2024-01-30T06:52:05;3.80;99.90
758;DHT22;363;48.764;9.172;2024-01-30T06:54:31;3.10;99.90
758;DHT22;363;48.764;9.172;2024-01-30T06:56:58;4.10;99.90
758;DHT22;363;48.764;9.172;2024-01-30T06:59:24;3.60;99.90
758;DHT22;363;48.764;9.172;2024-01-30T07:01:49;3.90;99.90
758;DHT22;363;48.764;9.172;2024-01-30T07:04:15;3.80;99.90
758;DHT22;363;48.764;9.172;2024-01-30T07:06:41;3.70;99.90
758;DHT22;363;48.764;9.172;2024-01-30T07:09:07;3.70;99.90
758;DHT22;363;48.764;9.172;2024-01-30T07:11:32;3.90;99.90
758;DHT22;363;48.764;9.172;2024-01-30T07:13:58;3.50;99.90
758;DHT22;363;48.764;9.172;2024-01-30T07:16:23;3.30;99.90
758;DHT22;363;48.764;9.172;2024-01-30T07:18:49;3.60;99.90
758;DHT22;363;48.764;9.172;2024-01-30T07:21:15;3.60;99.90
758;DHT22;363;48.764;9.172;2024-01-30T07:23:41;4.20;99.90
758;DHT22;363;48.764;9.172;2024-01-30T07:26:07;3.70;99.90
758;DHT22;363;48.764;9.172;2024-01-30T07:28:33;3.60;99.90
758;DHT22;363;48.764;9.172;2024-01-30T07:31:00;3.70;99.90
758;DHT22;363;48.764;9.172;2024-01-30T07:33:25;3.90;99.90
758;DHT22;363;48.764;9.172;2024-01-30T07:35:52;3.70;99.90
758;DHT22;363;48.764;9.172;2024-01-30T07:38:18;4.10;99.90
758;DHT22;363;48.764;9.172;2024-01-30T07:40:44;3.90;99.90
758;DHT22;363;48.764;9.172;2024-01-30T07:43:09;4.00;99.90
758;DHT22;363;48.764;9.172;2024-01-30T07:45:35;4.10;99.90
758;DHT22;363;48.764;9.172;2024-01-30T07:48:02;4.00;99.90
758;DHT22;363;48.764;9.172;2024-01-30T07:50:28;4.10;99.90
758;DHT22;363;48.764;9.172;2024-01-30T07:52:55;4.30;99.90
758;DHT22;363;48.764;9.172;2024-01-30T07:55:21;4.80;99.90
758;DHT22;363;48.764;9.172;2024-01-30T07:57:52;4.50;99.90
758;DHT22;363;48.764;9.172;2024-01-30T08:00:20;4.90;99.90
758;DHT22;363;48.764;9.172;2024-01-30T08:02:46;4.40;99.90
758;DHT22;363;48.764;9.172;2024-01-30T08:05:12;4.40;99.90
758;DHT22;363;48.764;9.172;2024-01-30T08:07:54;5.00;99.90
758;DHT22;363;48.764;9.172;2024-01-30T08:10:20;4.70;99.90
758;DHT22;363;48.764;9.172;2024-01-30T08:12:45;4.60;99.90
758;DHT22;363;48.764;9.172;2024-01-30T08:15:11;4.40;99.90
758;DHT22;363;48.764;9.172;2024-01-30T08:17:40;4.80;99.90
758;DHT22;363;48.764;9.172;2024-01-30T08:20:06;5.40;99.90
758;DHT22;363;48.764;9.172;2024-01-30T08:22:33;5.30;99.90
758;DHT22;363;48.764;9.172;2024-01-30T08:24:59;5.90;99.90
758;DHT22;363;48.764;9.172;2024-01-30T08:27:24;5.80;99.90
758;DHT22;363;48.764;9.172;2024-01-30T08:29:50;5.40;99.90
758;DHT22;363;48.764;9.172;2024-01-30T08:32:15;6.10;99.90
758;DHT22;363;48.764;9.172;2024-01-30T08:34:41;6.10;99.90
758;DHT22;363;48.764;9.172;2024-01-30T08:37:07;6.30;99.90
758;DHT22;363;48.764;9.172;2024-01-30T08:39:32;6.50;99.90
758;DHT22;363;48.764;9.172;2024-01-30T08:41:58;6.90;99.90
758;DHT22;363;48.764;9.172;2024-01-30T08:44:23;6.80;99.90
758;DHT22;363;48.764;9.172;2024-01-30T08:46:49;7.20;99.90
758;DHT22;363;48.764;9.172;2024-01-30T08:49:16;7.30;99.90
758;DHT22;363;48.764;9.172;2024-01-30T08:51:42;7.20;99.90
758;DHT22;363;48.764;9.172;2024-01-30T08:54:07;7.60;99.90
758;DHT22;363;48.764;9.172;2024-01-30T08:56:33;8.00;99.90
758;DHT22;363;48.764;9.172;2024-01-30T08:58:58;7.30;99.90
758;DHT22;363;48.764;9.172;2024-01-30T09:01:25;7.60;99.90
758;DHT22;363;48.764;9.172;2024-01-30T09:03:50;8.10;99.90
758;DHT22;363;48.764;9.172;2024-01-30T09:06:16;8.40;99.90
758;DHT22;363;48.764;9.172;2024-01-30T09:08:42;9.00;99.90
758;DHT22;363;48.764;9.172;2024-01-30T09:11:14;8.60;99.90
758;DHT22;363;48.764;9.172;2024-01-30T09:13:40;8.50;99.90
758;DHT22;363;48.764;9.172;2024-01-30T09:16:06;9.10;99.90
758;DHT22;363;48.764;9.172;2024-01-30T09:18:32;9.70;99.90
758;DHT22;363;48.764;9.172;2024-01-30T09:20:59;9.30;99.80
758;DHT22;363;48.764;9.172;2024-01-30T09:23:24;9.90;99.00
758;DHT22;363;48.764;9.172;2024-01-30T09:25:50;11.60;97.40
758;DHT22;363;48.764;9.172;2024-01-30T09:28:17;11.20;94.40
758;DHT22;363;48.764;9.172;2024-01-30T09:30:43;11.60;93.10
758;DHT22;363;48.764;9.172;2024-01-30T09:33:08;11.60;93.30
758;DHT22;363;48.764;9.172;2024-01-30T09:35:34;11.70;93.50
758;DHT22;363;48.764;9.172;2024-01-30T09:37:59;11.70;92.80
758;DHT22;363;48.764;9.172;2024-01-30T09:40:25;11.90;92.70
758;DHT22;363;48.764;9.172;2024-01-30T09:42:51;11.80;92.40
758;DHT22;363;48.764;9.172;2024-01-30T09:45:23;12.00;92.00
758;DHT22;363;48.764;9.172;2024-01-30T09:47:49;12.00;92.30
758;DHT22;363;48.764;9.172;2024-01-30T09:50:15;12.10;92.60
758;DHT22;363;48.764;9.172;2024-01-30T09:55:25;12.00;92.30
758;DHT22;363;48.764;9.172;2024-01-30T09:57:51;11.90;91.50
758;DHT22;363;48.764;9.172;2024-01-30T10:00:17;12.00;91.50
758;DHT22;363;48.764;9.172;2024-01-30T10:03:03;12.20;91.30
758;DHT22;363;48.764;9.172;2024-01-30T10:05:31;12.20;90.90
758;DHT22;363;48.764;9.172;2024-01-30T10:07:59;13.30;91.30
758;DHT22;363;48.764;9.172;2024-01-30T10:10:24;12.90;90.30
758;DHT22;363;48.764;9.172;2024-01-30T10:12:50;13.00;89.50
758;DHT22;363;48.764;9.172;2024-01-30T10:15:17;13.40;90.00
758;DHT22;363;48.764;9.172;2024-01-30T10:17:44;12.90;90.50
758;DHT22;363;48.764;9.172;2024-01-30T10:20:10;13.50;90.20
758;DHT22;363;48.764;9.172;2024-01-30T10:22:36;13.20;89.40
758;DHT22;363;48.764;9.172;2024-01-30T10:25:02;13.40;89.70
758;DHT22;363;48.764;9.172;2024-01-30T10:27:28;13.30;88.90
758;DHT22;363;48.764;9.172;2024-01-30T10:29:55;13.50;89.30
758;DHT22;363;48.764;9.172;2024-01-30T10:32:22;13.10;88.50
758;DHT22;363;48.764;9.172;2024-01-30T10:34:47;13.20;88.20
758;DHT22;363;48.764;9.172;2024-01-30T10:37:15;13.20;89.30
758;DHT22;363;48.764;9.172;2024-01-30T10:39:44;12.80;89.80
758;DHT22;363;48.764;9.172;2024-01-30T10:42:14;13.00;89.60
758;DHT22;363;48.764;9.172;2024-01-30T10:45:06;13.30;90.00
758;DHT22;363;48.764;9.172;2024-01-30T10:47:35;13.20;89.10
758;DHT22;363;48.764;9.172;2024-01-30T10:50:02;13.40;89.10
758;DHT22;363;48.764;9.172;2024-01-30T10:52:29;12.80;88.60
758;DHT22;363;48.764;9.172;2024-01-30T10:54:55;13.00;89.70
758;DHT22;363;48.764;9.172;2024-01-30T10:57:26;12.40;89.10
758;DHT22;363;48.764;9.172;2024-01-30T10:59:57;12.70;89.60
758;DHT22;363;48.764;9.172;2024-01-30T11:02:23;13.30;89.50
758;DHT22;363;48.764;9.172;2024-01-30T11:04:49;12.80;88.90
758;DHT22;363;48.764;9.172;2024-01-30T11:07:23;13.40;89.40
758;DHT22;363;48.764;9.172;2024-01-30T11:10:03;13.10;88.80
758;DHT22;363;48.764;9.172;2024-01-30T11:12:31;12.40;88.10
758;DHT22;363;48.764;9.172;2024-01-30T11:15:14;13.60;89.50
758;DHT22;363;48.764;9.172;2024-01-30T11:17:51;13.50;88.70
758;DHT22;363;48.764;9.172;2024-01-30T11:20:31;12.90;87.00
758;DHT22;363;48.764;9.172;2024-01-30T11:22:57;14.50;89.00
758;DHT22;363;48.764;9.172;2024-01-30T11:25:24;13.20;88.50
758;DHT22;363;48.764;9.172;2024-01-30T11:27:52;13.10;88.40
758;DHT22;363;48.764;9.172;2024-01-30T11:30:25;13.00;88.00
758;DHT22;363;48.764;9.172;2024-01-30T11:33:02;13.10;88.80
758;DHT22;363;48.764;9.172;2024-01-30T11:35:35;12.90;89.20
758;DHT22;363;48.764;9.172;2024-01-30T11:38:03;13.60;89.50
758;DHT22;363;48.764;9.172;2024-01-30T11:40:31;13.10;88.70
758;DHT22;363;48.764;9.172;2024-01-30T11:42:59;13.60;89.30
758;DHT22;363;48.764;9.172;2024-01-30T11:45:26;13.00;88.80
758;DHT22;363;48.764;9.172;2024-01-30T11:47:54;13.00;88.80
758;DHT22;363;48.764;9.172;2024-01-30T11:50:20;12.80;88.90
758;DHT22;363;48.764;9.172;2024-01-30T11:52:45;13.00;89.30
758;DHT22;363;48.764;9.172;2024-01-30T11:55:13;12.90;89.10
758;DHT22;363;48.764;9.172;2024-01-30T11:57:39;13.40;89.90
758;DHT22;363;48.764;9.172;2024-01-30T12:00:05;13.70;90.00
758;DHT22;363;48.764;9.172;2024-01-30T12:02:54;13.00;89.50
758;DHT22;363;48.764;9.172;2024-01-30T12:05:25;13.40;89.60
758;DHT22;363;48.764;9.172;2024-01-30T12:07:51;12.70;88.40
758;DHT22;363;48.764;9.172;2024-01-30T12:10:17;13.10;89.00
758;DHT22;363;48.764;9.172;2024-01-30T12:12:49;13.20;89.40
758;DHT22;363;48.764;9.172;2024-01-30T12:15:15;13.00;89.20
758;DHT22;363;48.764;9.172;2024-01-30T12:17:42;13.10;89.30
758;DHT22;363;48.764;9.172;2024-01-30T12:20:12;14.80;90.60
758;DHT22;363;48.764;9.172;2024-01-30T12:22:42;13.30;89.40
758;DHT22;363;48.764;9.172;2024-01-30T12:27:35;13.50;89.00
758;DHT22;363;48.764;9.172;2024-01-30T12:30:01;13.60;88.10
758;DHT22;363;48.764;9.172;2024-01-30T12:32:27;13.30;88.50
758;DHT22;363;48.764;9.172;2024-01-30T12:34:56;13.40;88.80
758;DHT22;363;48.764;9.172;2024-01-30T12:37:23;13.90;89.80
758;DHT22;363;48.764;9.172;2024-01-30T12:39:53;14.20;89.10
758;DHT22;363;48.764;9.172;2024-01-30T12:42:20;14.80;89.70
758;DHT22;363;48.764;9.172;2024-01-30T12:44:46;13.70;88.30
758;DHT22;363;48.764;9.172;2024-01-30T12:47:12;13.60;88.10
758;DHT22;363;48.764;9.172;2024-01-30T12:49:37;14.00;88.70
758;DHT22;363;48.764;9.172;2024-01-30T12:52:03;13.70;87.90
758;DHT22;363;48.764;9.172;2024-01-30T12:54:30;13.80;88.00
758;DHT22;363;48.764;9.172;2024-01-30T12:56:55;14.10;88.40
758;DHT22;363;48.764;9.172;2024-01-30T12:59:21;13.80;87.80
758;DHT22;363;48.764;9.172;2024-01-30T13:01:47;14.10;88.70
758;DHT22;363;48.764;9.172;2024-01-30T13:04:12;14.00;88.00
758;DHT22;363;48.764;9.172;2024-01-30T13:06:38;14.40;88.50
758;DHT22;363;48.764;9.172;2024-01-30T13:09:04;14.00;87.20
758;DHT22;363;48.764;9.172;2024-01-30T13:11:31;14.30;87.60
758;DHT22;363;48.764;9.172;2024-01-30T13:13:57;14.30;87.90
758;DHT22;363;48.764;9.172;2024-01-30T13:16:22;13.90;87.40
758;DHT22;363;48.764;9.172;2024-01-30T13:18:48;14.40;88.30
758;DHT22;363;48.764;9.172;2024-01-30T13:21:14;13.90;87.40
758;DHT22;363;48.764;9.172;2024-01-30T13:23:39;13.90;87.30
758;DHT22;363;48.764;9.172;2024-01-30T13:26:05;14.20;87.40
758;DHT22;363;48.764;9.172;2024-01-30T13:28:33;14.10;86.80
758;DHT22;363;48.764;9.172;2024-01-30T13:30:58;13.70;86.60
758;DHT22;363;48.764;9.172;2024-01-30T13:33:24;13.80;87.00
758;DHT22;363;48.764;9.172;2024-01-30T13:35:50;14.00;87.70
758;DHT22;363;48.764;9.172;2024-01-30T13:38:16;14.10;87.70
758;DHT22;363;48.764;9.172;2024-01-30T13:40:41;14.10;87.60
758;DHT22;363;48.764;9.172;2024-01-30T13:43:07;14.30;88.50
758;DHT22;363;48.764;9.172;2024-01-30T13:45:32;14.50;88.40
758;DHT22;363;48.764;9.172;2024-01-30T13:47:58;14.10;88.30
758;DHT22;363;48.764;9.172;2024-01-30T13:50:24;13.60;88.00
758;DHT22;363;48.764;9.172;2024-01-30T13:52:50;14.30;90.00
758;DHT22;363;48.764;9.172;2024-01-30T13:55:15;14.20;88.40
758;DHT22;363;48.764;9.172;2024-01-30T13:57:41;14.70;88.50
758;DHT22;363;48.764;9.172;2024-01-30T14:00:07;14.50;88.00
758;DHT22;363;48.764;9.172;2024-01-30T14:02:33;14.40;86.80
758;DHT22;363;48.764;9.172;2024-01-30T14:04:58;14.60;87.00
758;DHT22;363;48.764;9.172;2024-01-30T14:07:24;14.10;86.40
758;DHT22;363;48.764;9.172;2024-01-30T14:09:50;14.60;87.80
758;DHT22;363;48.764;9.172;2024-01-30T14:12:15;16.00;89.30
758;DHT22;363;48.764;9.172;2024-01-30T14:14:41;14.80;87.50
758;DHT22;363;48.764;9.172;2024-01-30T14:17:07;14.80;87.60
758;DHT22;363;48.764;9.172;2024-01-30T14:19:33;15.00;87.50
758;DHT22;363;48.764;9.172;2024-01-30T14:21:59;15.60;88.50
758;DHT22;363;48.764;9.172;2024-01-30T14:24:25;15.00;87.40
758;DHT22;363;48.764;9.172;2024-01-30T14:26:52;14.50;87.70
758;DHT22;363;48.764;9.172;2024-01-30T14:29:18;14.70;87.30
758;DHT22;363;48.764;9.172;2024-01-30T14:31:43;14.90;88.60
758;DHT22;363;48.764;9.172;2024-01-30T14:36:37;14.30;86.90
758;DHT22;363;48.764;9.172;2024-01-30T14:39:02;14.30;87.70
758;DHT22;363;48.764;9.172;2024-01-30T14:41:29;14.00;88.00
758;DHT22;363;48.764;9.172;2024-01-30T14:43:54;13.90;89.20
758;DHT22;363;48.764;9.172;2024-01-30T14:46:20;14.10;89.00
758;DHT22;363;48.764;9.172;2024-01-30T14:48:47;14.30;89.90
758;DHT22;363;48.764;9.172;2024-01-30T14:51:12;14.00;89.60
758;DHT22;363;48.764;9.172;2024-01-30T14:53:38;13.90;89.40
758;DHT22;363;48.764;9.172;2024-01-30T14:56:05;13.90;89.50
758;DHT22;363;48.764;9.172;2024-01-30T14:58:30;13.90;89.90
758;DHT22;363;48.764;9.172;2024-01-30T15:00:56;13.60;90.00
758;DHT22;363;48.764;9.172;2024-01-30T15:03:21;14.00;90.30
758;DHT22;363;48.764;9.172;2024-01-30T15:05:47;13.40;90.40
758;DHT22;363;48.764;9.172;2024-01-30T15:08:12;13.80;90.70
758;DHT22;363;48.764;9.172;2024-01-30T15:10:38;13.80;90.50
758;DHT22;363;48.764;9.172;2024-01-30T15:13:04;14.10;90.70
758;DHT22;363;48.764;9.172;2024-01-30T15:15:30;13.70;90.50
758;DHT22;363;48.764;9.172;2024-01-30T15:17:56;13.30;91.20
758;DHT22;363;48.764;9.172;2024-01-30T15:20:22;13.50;91.80
758;DHT22;363;48.764;9.172;2024-01-30T15:22:47;13.30;92.60
758;DHT22;363;48.764;9.172;2024-01-30T15:25:13;12.90;91.30
758;DHT22;363;48.764;9.172;2024-01-30T15:27:55;12.80;91.60
758;DHT22;363;48.764;9.172;2024-01-30T15:30:20;12.90;93.00
758;DHT22;363;48.764;9.172;2024-01-30T15:32:46;13.10;93.20
758;DHT22;363;48.764;9.172;2024-01-30T15:35:12;12.70;93.40
758;DHT22;363;48.764;9.172;2024-01-30T15:37:38;12.80;93.60
758;DHT22;363;48.764;9.172;2024-01-30T15:40:05;12.80;93.90
758;DHT22;363;48.764;9.172;2024-01-30T15:42:34;12.70;94.00
758;DHT22;363;48.764;9.172;2024-01-30T15:45:00;12.50;94.60
758;DHT22;363;48.764;9.172;2024-01-30T15:47:26;12.50;95.00
758;DHT22;363;48.764;9.172;2024-01-30T15:49:52;12.40;95.30
758;DHT22;363;48.764;9.172;2024-01-30T15:52:20;12.40;95.00
758;DHT22;363;48.764;9.172;2024-01-30T15:54:46;12.30;94.60
758;DHT22;363;48.764;9.172;2024-01-30T15:57:13;12.70;94.70
758;DHT22;363;48.764;9.172;2024-01-30T15:59:38;12.20;94.70
758;DHT22;363;48.764;9.172;2024-01-30T16:02:04;12.50;94.90
758;DHT22;363;48.764;9.172;2024-01-30T16:04:30;12.40;95.50
758;DHT22;363;48.764;9.172;2024-01-30T16:06:56;12.40;96.20
758;DHT22;363;48.764;9.172;2024-01-30T16:09:24;12.00;96.40
758;DHT22;363;48.764;9.172;2024-01-30T16:11:50;11.60;96.30
758;DHT22;363;48.764;9.172;2024-01-30T16:14:15;12.00;97.00
758;DHT22;363;48.764;9.172;2024-01-30T16:16:41;12.10;97.20
758;DHT22;363;48.764;9.172;2024-01-30T16:19:06;11.50;96.90
758;DHT22;363;48.764;9.172;2024-01-30T16:21:32;11.40;97.00
758;DHT22;363;48.764;9.172;2024-01-30T16:23:58;11.80;97.50
758;DHT22;363;48.764;9.172;2024-01-30T16:26:24;12.00;97.90
758;DHT22;363;48.764;9.172;2024-01-30T16:28:50;11.40;97.60
758;DHT22;363;48.764;9.172;2024-01-30T16:31:16;11.60;97.80
758;DHT22;363;48.764;9.172;2024-01-30T16:33:48;11.10;97.20
758;DHT22;363;48.764;9.172;2024-01-30T16:36:15;11.30;97.30
758;DHT22;363;48.764;9.172;2024-01-30T16:38:41;11.40;97.80
758;DHT22;363;48.764;9.172;2024-01-30T16:41:07;10.80;97.90
758;DHT22;363;48.764;9.172;2024-01-30T16:43:32;11.50;98.20
758;DHT22;363;48.764;9.172;2024-01-30T16:45:58;11.60;98.30
758;DHT22;363;48.764;9.172;2024-01-30T16:48:24;11.20;98.30
758;DHT22;363;48.764;9.172;2024-01-30T16:50:50;11.20;98.40
758;DHT22;363;48.764;9.172;2024-01-30T16:53:15;11.50;98.70
758;DHT22;363;48.764;9.172;2024-01-30T16:55:41;10.90;98.50
758;DHT22;363;48.764;9.172;2024-01-30T16:58:06;10.90;98.70
758;DHT22;363;48.764;9.172;2024-01-30T17:00:34;10.90;98.90
758;DHT22;363;48.764;9.172;2024-01-30T17:03:00;11.00;99.10
758;DHT22;363;48.764;9.172;2024-01-30T17:05:25;11.00;99.10